createdAt,value
2019-02-04T00:01:23.530Z,2.30
2019-02-04T00:03:53.130Z,2.53
2019-02-04T00:06:22.401Z,2.30
2019-02-04T00:08:51.867Z,2.43
2019-02-04T00:11:21.147Z,2.30
2019-02-04T00:13:50.255Z,2.70
2019-02-04T00:16:19.714Z,2.50
2019-02-04T00:18:49.211Z,2.70
2019-02-04T00:21:18.851Z,2.50
2019-02-04T00:23:48.408Z,2.57
2019-02-04T00:26:17.715Z,2.40
2019-02-04T00:28:47.077Z,2.50
2019-02-04T00:31:16.232Z,2.57
2019-02-04T00:33:45.656Z,2.53
2019-02-04T00:36:14.875Z,2.60
2019-02-04T00:38:44.192Z,2.30
2019-02-04T00:41:13.393Z,2.33
2019-02-04T00:43:42.543Z,2.60
2019-02-04T00:46:11.750Z,2.47
2019-02-04T00:48:41.295Z,2.27
2019-02-04T00:51:10.633Z,2.50
2019-02-04T00:53:40.183Z,2.47
2019-02-04T00:56:09.317Z,2.20
2019-02-04T00:58:38.586Z,2.30
2019-02-04T01:01:08.115Z,2.43
2019-02-04T01:03:37.775Z,2.60
2019-02-04T01:06:06.944Z,2.40
2019-02-04T01:08:36.223Z,2.57
2019-02-04T01:11:05.535Z,2.57
2019-02-04T01:13:35.128Z,2.37
2019-02-04T01:16:04.919Z,2.20
2019-02-04T01:18:34.043Z,2.67
2019-02-04T01:21:03.164Z,2.50
2019-02-04T01:23:32.278Z,2.40
2019-02-04T01:26:01.540Z,2.50
2019-02-04T01:28:30.763Z,2.63
2019-02-04T01:30:59.956Z,2.50
2019-02-04T01:33:29.447Z,2.27
2019-02-04T01:35:58.642Z,2.50
2019-02-04T01:38:27.835Z,2.83
2019-02-04T01:40:57.050Z,2.47
2019-02-04T01:43:26.681Z,2.40
2019-02-04T01:45:56.067Z,2.47
2019-02-04T01:48:25.577Z,2.27
2019-02-04T01:50:54.704Z,2.43
2019-02-04T01:53:23.908Z,2.30
2019-02-04T01:55:53.021Z,2.10
2019-02-04T01:58:22.651Z,2.30
2019-02-04T02:00:51.758Z,2.43
2019-02-04T02:03:20.991Z,2.77
2019-02-04T02:05:50.188Z,2.50
2019-02-04T02:08:19.487Z,2.30
2019-02-04T02:10:49.045Z,2.63
2019-02-04T02:13:18.788Z,2.37
2019-02-04T02:15:47.996Z,2.20
2019-02-04T02:18:17.161Z,2.17
2019-02-04T02:20:46.346Z,2.37
2019-02-04T02:23:15.509Z,2.60
2019-02-04T02:25:44.713Z,2.10
2019-02-04T02:28:15.554Z,2.20
2019-02-04T02:30:44.785Z,2.27
2019-02-04T02:33:14.002Z,2.50
2019-02-04T02:35:43.184Z,2.03
2019-02-04T02:38:12.336Z,2.37
2019-02-04T02:40:41.902Z,2.20
2019-02-04T02:43:11.769Z,2.10
2019-02-04T02:45:41.167Z,2.47
2019-02-04T02:48:10.398Z,2.30
2019-02-04T02:50:39.613Z,2.10
2019-02-04T02:53:08.896Z,2.27
2019-02-04T02:55:38.475Z,2.40
2019-02-04T02:58:07.697Z,2.30
2019-02-04T03:00:36.807Z,2.10
2019-02-04T03:03:06.043Z,2.40
2019-02-04T03:05:35.235Z,2.03
2019-02-04T03:08:04.806Z,2.07
2019-02-04T03:10:34.430Z,2.40
2019-02-04T03:13:03.619Z,1.97
2019-02-04T03:15:32.769Z,2.30
2019-02-04T03:18:02.032Z,2.33
2019-02-04T03:20:31.217Z,2.20
2019-02-04T03:23:00.775Z,1.93
2019-02-04T03:25:29.934Z,2.10
2019-02-04T03:27:59.531Z,2.10
2019-02-04T03:30:30.784Z,2.53
2019-02-04T03:33:01.163Z,2.00
2019-02-04T03:35:30.348Z,2.20
2019-02-04T03:38:00.021Z,2.20
2019-02-04T03:40:31.155Z,2.10
2019-02-04T03:43:00.368Z,2.00
2019-02-04T03:45:29.825Z,2.03
2019-02-04T03:48:06.757Z,2.20
2019-02-04T03:50:30.837Z,2.23
2019-02-04T03:53:01.554Z,2.20
2019-02-04T03:55:30.827Z,1.90
2019-02-04T03:58:00.091Z,2.40
2019-02-04T04:00:31.591Z,2.03
2019-02-04T04:03:00.832Z,1.90
2019-02-04T04:05:30.124Z,2.03
2019-02-04T04:07:59.715Z,1.83
2019-02-04T04:10:29.136Z,1.80
2019-02-04T04:12:58.555Z,1.73
2019-02-04T04:15:27.759Z,2.10
2019-02-04T04:17:56.950Z,2.00
2019-02-04T04:20:26.069Z,2.00
2019-02-04T04:22:55.191Z,2.10
2019-02-04T04:25:24.311Z,1.83
2019-02-04T04:27:53.432Z,1.90
2019-02-04T04:30:24.842Z,2.13
2019-02-04T04:32:54.658Z,1.80
2019-02-04T04:35:23.860Z,2.00
2019-02-04T04:37:53.355Z,2.10
2019-02-04T04:40:22.772Z,2.30
2019-02-04T04:42:51.988Z,2.03
2019-02-04T04:45:22.854Z,1.80
2019-02-04T04:47:52.314Z,1.80
2019-02-04T04:50:21.872Z,1.87
2019-02-04T04:52:51.575Z,2.40
2019-02-04T04:55:22.748Z,2.10
2019-02-04T04:57:52.046Z,1.93
2019-02-04T05:00:26.505Z,2.07
2019-02-04T05:02:55.685Z,1.87
2019-02-04T05:05:25.165Z,1.97
2019-02-04T05:07:54.364Z,2.23
2019-02-04T05:10:23.731Z,2.20
2019-02-04T05:12:52.986Z,2.00
2019-02-04T05:15:24.945Z,2.20
2019-02-04T05:17:54.448Z,2.30
2019-02-04T05:20:24.566Z,1.67
2019-02-04T05:22:53.692Z,2.03
2019-02-04T05:25:22.918Z,2.10
2019-02-04T05:27:52.959Z,2.23
2019-02-04T05:30:23.287Z,2.13
2019-02-04T05:32:52.404Z,2.10
2019-02-04T05:35:21.643Z,2.10
2019-02-04T05:37:50.759Z,1.90
2019-02-04T05:40:20.451Z,2.17
2019-02-04T05:42:50.357Z,2.00
2019-02-04T05:45:20.988Z,2.20
2019-02-04T05:47:50.487Z,2.00
2019-02-04T05:50:20.551Z,2.10
2019-02-04T05:52:50.030Z,2.20
2019-02-04T05:55:20.756Z,1.97
2019-02-04T05:57:50.239Z,2.20
2019-02-04T06:00:25.464Z,1.90
2019-02-04T06:02:54.651Z,1.87
2019-02-04T06:05:23.902Z,1.90
2019-02-04T06:07:53.186Z,2.00
2019-02-04T06:10:22.520Z,1.87
2019-02-04T06:12:51.711Z,1.70
2019-02-04T06:15:20.927Z,1.60
2019-02-04T06:17:50.490Z,2.00
2019-02-04T06:20:21.043Z,1.77
2019-02-04T06:22:50.232Z,1.80
2019-02-04T06:25:19.393Z,1.80
2019-02-04T06:27:48.701Z,1.93
2019-02-04T06:30:18.099Z,1.83
2019-02-04T06:32:47.311Z,1.80
2019-02-04T06:35:17.212Z,2.10
2019-02-04T06:37:47.116Z,2.07
2019-02-04T06:40:16.619Z,1.47
2019-02-04T06:42:45.993Z,1.97
2019-02-04T06:45:15.818Z,2.10
2019-02-04T06:47:45.326Z,1.77
2019-02-04T06:50:16.192Z,1.63
2019-02-04T06:52:47.076Z,1.77
2019-02-04T06:55:18.830Z,1.60
2019-02-04T06:57:48.217Z,1.93
2019-02-04T07:00:18.340Z,1.90
2019-02-04T07:02:47.737Z,1.90
2019-02-04T07:05:17.739Z,2.40
2019-02-04T07:07:47.295Z,1.90
2019-02-04T07:10:18.499Z,2.17
2019-02-04T07:12:47.702Z,1.93
2019-02-04T07:15:16.823Z,1.80
2019-02-04T07:17:46.039Z,2.13
2019-02-04T07:20:18.259Z,2.00
2019-02-04T07:22:48.507Z,1.80
2019-02-04T07:25:18.071Z,2.10
2019-02-04T07:27:49.398Z,2.33
2019-02-04T07:30:20.511Z,1.87
2019-02-04T07:32:50.990Z,1.90
2019-02-04T07:35:20.600Z,1.90
2019-02-04T07:37:49.997Z,2.00
2019-02-04T07:40:27.969Z,2.30
2019-02-04T07:42:57.292Z,2.60
2019-02-04T07:45:26.547Z,2.30
2019-02-04T07:47:55.675Z,2.03
2019-02-04T07:50:24.860Z,2.00
2019-02-04T07:52:54.155Z,1.90
2019-02-04T07:55:24.066Z,2.20
2019-02-04T07:57:53.288Z,2.03
2019-02-04T08:00:24.816Z,1.90
2019-02-04T08:02:54.779Z,2.23
2019-02-04T08:05:24.440Z,2.30
2019-02-04T08:07:54.076Z,2.23
2019-02-04T08:10:23.200Z,2.37
2019-02-04T08:13:00.989Z,2.57
2019-02-04T08:15:32.419Z,2.60
2019-02-04T08:21:06.008Z,2.33
2019-02-04T08:23:35.133Z,2.33
2019-02-04T08:26:04.539Z,2.00
2019-02-04T08:28:33.749Z,2.30
2019-02-04T08:34:39.075Z,2.27
2019-02-04T08:37:08.587Z,2.10
2019-02-04T08:39:37.711Z,2.40
2019-02-04T08:42:06.929Z,2.67
2019-02-04T08:44:36.431Z,2.30
2019-02-04T08:47:05.643Z,2.17
2019-02-04T08:49:34.763Z,2.60
2019-02-04T08:52:04.653Z,2.77
2019-02-04T08:54:33.843Z,2.67
2019-02-04T08:57:03.063Z,2.50
2019-02-04T08:59:32.195Z,2.40
2019-02-04T09:02:01.387Z,2.40
2019-02-04T09:04:30.585Z,2.70
2019-02-04T09:06:59.798Z,2.50
2019-02-04T09:09:29.352Z,2.30
2019-02-04T09:11:58.622Z,2.70
2019-02-04T09:14:27.823Z,2.60
2019-02-04T09:16:57.512Z,2.00
2019-02-04T09:19:26.765Z,2.60
2019-02-04T09:21:55.963Z,2.97
2019-02-04T09:24:25.463Z,2.43
2019-02-04T09:26:54.661Z,2.80
2019-02-04T09:29:23.775Z,2.90
2019-02-04T09:31:52.900Z,2.90
2019-02-04T09:34:22.169Z,3.00
2019-02-04T09:36:51.437Z,3.03
2019-02-04T09:39:20.959Z,2.87
2019-02-04T09:41:50.255Z,2.70
2019-02-04T09:44:19.640Z,2.80
2019-02-04T09:46:48.802Z,2.83
2019-02-04T09:49:18.005Z,2.07
2019-02-04T09:51:47.235Z,2.60
2019-02-04T09:54:16.902Z,2.40
2019-02-04T09:56:46.156Z,2.67
2019-02-04T09:59:15.347Z,2.33
2019-02-04T10:01:44.821Z,2.47
2019-02-04T10:04:14.043Z,2.77
2019-02-04T10:06:43.382Z,2.30
2019-02-04T10:09:13.307Z,2.30
2019-02-04T10:11:42.848Z,2.30
2019-02-04T10:14:11.971Z,2.40
2019-02-04T10:16:41.118Z,2.50
2019-02-04T10:19:10.296Z,2.33
2019-02-04T10:21:39.474Z,2.77
2019-02-04T10:24:08.868Z,2.40
2019-02-04T10:26:38.170Z,2.43
2019-02-04T10:29:07.438Z,2.60
2019-02-04T10:31:36.980Z,2.20
2019-02-04T10:34:06.139Z,2.50
2019-02-04T10:36:35.322Z,3.63
2019-02-04T10:39:07.693Z,3.13
2019-02-04T10:41:37.003Z,2.50
2019-02-04T10:44:06.284Z,2.30
2019-02-04T10:46:35.515Z,2.43
2019-02-04T10:49:04.812Z,2.40
2019-02-04T10:51:34.832Z,2.33
2019-02-04T10:54:04.578Z,2.50
2019-02-04T10:56:33.804Z,2.53
2019-02-04T10:59:03.111Z,2.40
2019-02-04T11:01:32.349Z,2.77
2019-02-04T11:04:01.523Z,2.60
2019-02-04T11:06:31.367Z,2.40
2019-02-04T11:09:00.600Z,2.60
2019-02-04T11:11:29.887Z,2.40
2019-02-04T11:13:59.088Z,2.10
2019-02-04T11:16:28.623Z,2.87
2019-02-04T11:18:58.110Z,2.40
2019-02-04T11:21:27.540Z,2.50
2019-02-04T11:23:56.700Z,2.77
2019-02-04T11:26:25.901Z,2.47
2019-02-04T11:28:55.481Z,2.40
2019-02-04T11:31:24.687Z,2.57
2019-02-04T11:33:53.900Z,2.33
2019-02-04T11:36:23.461Z,2.50
2019-02-04T11:38:52.627Z,2.17
2019-02-04T11:41:21.825Z,2.37
2019-02-04T11:43:51.087Z,2.30
2019-02-04T11:46:20.322Z,2.50
2019-02-04T11:48:49.499Z,2.30
2019-02-04T11:51:18.644Z,2.70
2019-02-04T11:53:48.100Z,2.23
2019-02-04T11:56:17.219Z,2.60
2019-02-04T11:58:46.330Z,2.30
2019-02-04T12:01:15.703Z,2.57
2019-02-04T12:03:44.905Z,2.43
2019-02-04T12:06:17.467Z,2.90
2019-02-04T12:08:45.385Z,2.47
2019-02-04T12:11:24.194Z,2.77
2019-02-04T12:13:53.327Z,2.50
2019-02-04T12:16:22.527Z,2.50
2019-02-04T12:18:52.115Z,2.87
2019-02-04T12:21:21.907Z,2.90
2019-02-04T12:23:51.136Z,2.60
2019-02-04T12:26:20.359Z,2.47
2019-02-04T12:28:49.574Z,2.70
2019-02-04T12:31:18.722Z,7.83
2019-02-04T12:33:47.916Z,5.53
2019-02-04T12:36:17.500Z,5.50
2019-02-04T12:38:47.041Z,5.90
2019-02-04T12:41:16.615Z,5.60
2019-02-04T12:43:45.738Z,5.10
2019-02-04T12:46:14.945Z,5.17
2019-02-04T12:48:44.214Z,5.13
2019-02-04T12:51:13.871Z,5.40
2019-02-04T12:53:43.011Z,4.97
2019-02-04T12:56:12.546Z,4.53
2019-02-04T12:58:41.776Z,4.30
2019-02-04T13:01:11.495Z,4.70
2019-02-04T13:03:40.722Z,4.80
2019-02-04T13:06:11.491Z,4.10
2019-02-04T13:08:40.645Z,4.50
2019-02-04T13:11:09.837Z,4.10
2019-02-04T13:13:39.259Z,3.70
2019-02-04T13:16:08.882Z,3.50
2019-02-04T13:18:38.319Z,3.23
2019-02-04T13:21:07.450Z,3.57
2019-02-04T13:23:36.700Z,3.43
2019-02-04T13:26:05.831Z,3.67
2019-02-04T13:28:35.156Z,3.27
2019-02-04T13:31:04.838Z,3.47
2019-02-04T13:33:34.285Z,3.17
2019-02-04T13:36:03.513Z,3.50
2019-02-04T13:38:32.690Z,3.67
2019-02-04T13:41:08.105Z,2.83
2019-02-04T13:43:33.175Z,3.43
2019-02-04T13:46:02.460Z,3.43
2019-02-04T13:48:31.597Z,3.00
2019-02-04T13:51:00.784Z,3.30
2019-02-04T13:53:30.280Z,3.13
2019-02-04T13:55:59.508Z,2.90
2019-02-04T13:58:28.695Z,3.13
2019-02-04T14:00:57.896Z,2.50
2019-02-04T14:03:27.073Z,3.00
2019-02-04T14:05:56.287Z,2.83
2019-02-04T14:08:25.486Z,2.67
2019-02-04T14:10:54.645Z,2.70
2019-02-04T14:13:24.120Z,2.77
2019-02-04T14:15:53.441Z,2.43
2019-02-04T14:18:25.895Z,2.67
2019-02-04T14:20:53.464Z,2.63
2019-02-04T14:23:22.667Z,2.80
2019-02-04T14:25:51.782Z,2.43
2019-02-04T14:28:20.996Z,2.70
2019-02-04T14:30:50.191Z,2.20
2019-02-04T14:33:19.473Z,2.50
2019-02-04T14:35:48.772Z,2.60
2019-02-04T14:38:17.900Z,2.50
2019-02-04T14:40:47.271Z,2.40
2019-02-04T14:43:23.637Z,2.30
2019-02-04T14:46:15.398Z,2.53
2019-02-04T14:49:27.485Z,2.43
2019-02-04T14:52:34.699Z,2.20
2019-02-04T14:55:49.783Z,2.27
2019-02-04T14:58:34.185Z,2.20
2019-02-04T15:01:44.875Z,2.47
2019-02-04T15:04:39.636Z,2.40
2019-02-04T15:07:34.756Z,2.20
2019-02-04T15:10:39.367Z,2.00
2019-02-04T15:13:40.265Z,2.10
2019-02-04T15:16:25.421Z,2.03
2019-02-04T15:19:51.039Z,2.13
2019-02-04T15:22:45.416Z,2.33
2019-02-04T15:25:57.006Z,2.17
2019-02-04T15:29:04.051Z,2.17
2019-02-04T15:31:48.863Z,2.30
2019-02-04T15:34:46.624Z,1.93
2019-02-04T15:37:50.547Z,1.90
2019-02-04T15:40:53.637Z,1.70
2019-02-04T15:44:01.381Z,1.60
2019-02-04T15:46:55.424Z,2.00
2019-02-04T15:49:56.461Z,1.70
2019-02-04T15:52:25.789Z,1.80
2019-02-04T15:54:54.999Z,2.00
2019-02-04T15:57:24.605Z,1.80
2019-02-04T15:59:53.720Z,1.93
2019-02-04T16:02:22.855Z,1.80
2019-02-04T16:04:52.355Z,2.13
2019-02-04T16:07:23.846Z,1.70
2019-02-04T16:09:52.464Z,1.83
2019-02-04T16:12:21.664Z,1.80
2019-02-04T16:14:50.873Z,1.60
2019-02-04T16:17:20.360Z,1.97
2019-02-04T16:19:49.886Z,1.80
2019-02-04T16:22:19.094Z,1.70
2019-02-04T16:24:48.299Z,1.73
2019-02-04T16:27:17.427Z,1.80
2019-02-04T16:29:46.626Z,1.57
2019-02-04T16:32:15.815Z,1.80
2019-02-04T16:34:44.953Z,1.73
2019-02-04T16:37:14.155Z,1.90
2019-02-04T16:39:43.271Z,1.77
2019-02-04T16:42:12.444Z,2.00
2019-02-04T16:44:41.839Z,1.60
2019-02-04T16:47:11.044Z,1.50
2019-02-04T16:49:40.161Z,1.57
2019-02-04T16:52:09.615Z,1.93
2019-02-04T16:54:38.735Z,1.70
2019-02-04T16:57:07.900Z,1.70
2019-02-04T16:59:37.108Z,1.73
2019-02-04T17:02:06.231Z,1.47
2019-02-04T17:04:35.352Z,1.37
2019-02-04T17:07:05.472Z,1.70
2019-02-04T17:09:35.037Z,1.80
2019-02-04T17:12:04.348Z,1.80
2019-02-04T17:14:33.479Z,1.70
2019-02-04T17:17:02.599Z,1.70
2019-02-04T17:19:31.728Z,1.63
2019-02-04T17:22:01.136Z,1.70
2019-02-04T17:24:30.271Z,1.70
2019-02-04T17:26:59.533Z,1.40
2019-02-04T17:29:29.107Z,1.67
2019-02-04T17:32:00.445Z,1.73
2019-02-04T17:34:29.087Z,1.50
2019-02-04T17:36:58.292Z,1.77
2019-02-04T17:39:27.484Z,1.70
2019-02-04T17:41:56.881Z,1.67
2019-02-04T17:44:26.077Z,1.47
2019-02-04T17:46:55.589Z,1.67
2019-02-04T17:49:24.789Z,1.27
2019-02-04T17:51:53.928Z,1.40
2019-02-04T17:54:23.133Z,1.47
2019-02-04T17:56:52.349Z,1.50
2019-02-04T17:59:23.223Z,1.60
2019-02-04T18:01:52.690Z,1.37
2019-02-04T18:04:21.884Z,1.80
2019-02-04T18:06:51.159Z,1.50
2019-02-04T18:09:20.812Z,1.50
2019-02-04T18:11:50.010Z,1.60
2019-02-04T18:14:19.250Z,1.60
2019-02-04T18:16:48.436Z,1.60
2019-02-04T18:19:17.687Z,1.47
2019-02-04T18:21:46.798Z,1.50
2019-02-04T18:24:16.595Z,1.60
2019-02-04T18:26:45.790Z,1.83
2019-02-04T18:29:15.039Z,1.87
2019-02-04T18:31:44.232Z,1.77
2019-02-04T18:34:13.475Z,1.67
2019-02-04T18:36:42.659Z,1.60
2019-02-04T18:39:12.320Z,2.00
2019-02-04T18:41:41.621Z,1.90
2019-02-04T18:44:10.863Z,1.90
2019-02-04T18:46:40.360Z,1.60
2019-02-04T18:49:09.516Z,1.60
2019-02-04T18:51:38.707Z,1.90
2019-02-04T18:54:07.949Z,1.80
2019-02-04T18:56:37.147Z,1.60
2019-02-04T18:59:07.099Z,1.57
2019-02-04T19:01:36.290Z,1.90
2019-02-04T19:04:05.815Z,1.90
2019-02-04T19:06:47.118Z,1.83
2019-02-04T19:09:09.764Z,1.97
2019-02-04T19:11:38.891Z,1.60
2019-02-04T19:14:08.136Z,1.60
2019-02-04T19:16:37.255Z,1.70
2019-02-04T19:19:06.980Z,2.00
2019-02-04T19:21:38.265Z,1.70
2019-02-04T19:24:09.688Z,1.97
2019-02-04T19:26:38.311Z,1.83
2019-02-04T19:29:07.514Z,1.80
2019-02-04T19:31:36.637Z,1.87
2019-02-04T19:34:06.132Z,1.60
2019-02-04T19:36:35.304Z,1.83
2019-02-04T19:39:06.419Z,1.87
2019-02-04T19:41:35.539Z,2.13
2019-02-04T19:44:05.203Z,2.10
2019-02-04T19:46:34.328Z,1.90
2019-02-04T19:49:03.836Z,1.83
2019-02-04T19:51:33.011Z,1.70
2019-02-04T19:54:02.195Z,2.03
2019-02-04T19:56:31.327Z,1.40
2019-02-04T19:59:00.843Z,1.77
2019-02-04T20:01:29.965Z,2.00
2019-02-04T20:04:00.113Z,1.90
2019-02-04T20:06:29.235Z,1.73
2019-02-04T20:08:58.437Z,1.90
2019-02-04T20:11:27.952Z,1.70
2019-02-04T20:13:57.077Z,1.77
2019-02-04T20:16:26.283Z,1.87
2019-02-04T20:18:55.903Z,1.80
2019-02-04T20:21:25.365Z,1.67
2019-02-04T20:23:54.560Z,1.80
2019-02-04T20:26:23.740Z,1.90
2019-02-04T20:28:52.860Z,1.80
2019-02-04T20:31:22.079Z,1.97
2019-02-04T20:33:51.588Z,1.77
2019-02-04T20:36:30.173Z,1.80
2019-02-04T20:39:00.044Z,1.80
2019-02-04T20:41:29.235Z,1.90
2019-02-04T20:43:58.360Z,1.80
2019-02-04T20:46:27.537Z,2.30
2019-02-04T20:48:56.736Z,1.87
2019-02-04T20:51:26.176Z,1.87
2019-02-04T20:53:55.368Z,1.87
2019-02-04T20:56:24.639Z,1.70
2019-02-04T20:58:54.383Z,1.90
2019-02-04T21:01:23.803Z,1.83
2019-02-04T21:03:52.927Z,1.90
2019-02-04T21:06:22.049Z,1.90
2019-02-04T21:08:51.164Z,1.77
2019-02-04T21:11:20.639Z,2.20
2019-02-04T21:13:50.238Z,2.00
2019-02-04T21:16:19.419Z,2.30
2019-02-04T21:18:48.682Z,1.83
2019-02-04T21:21:18.171Z,2.07
2019-02-04T21:23:47.332Z,2.07
2019-02-04T21:26:16.471Z,2.23
2019-02-04T21:28:45.582Z,1.87
2019-02-04T21:31:14.819Z,1.93
2019-02-04T21:33:43.945Z,1.90
2019-02-04T21:36:13.106Z,1.80
2019-02-04T21:38:42.223Z,1.70
2019-02-04T21:41:31.831Z,1.90
2019-02-04T21:44:00.950Z,1.77
2019-02-04T21:46:30.163Z,2.27
2019-02-04T21:48:59.351Z,2.00
2019-02-04T21:51:29.131Z,1.90
2019-02-04T21:53:58.350Z,1.90
2019-02-04T21:56:27.588Z,1.87
2019-02-04T21:58:56.711Z,1.73
2019-02-04T22:01:25.872Z,1.80
2019-02-04T22:03:55.131Z,2.40
2019-02-04T22:06:24.287Z,1.77
2019-02-04T22:08:53.405Z,1.67
2019-02-04T22:11:22.643Z,1.90
2019-02-04T22:13:52.190Z,2.00
2019-02-04T22:16:21.944Z,1.73
2019-02-04T22:18:51.221Z,1.90
2019-02-04T22:21:20.435Z,1.97
2019-02-04T22:23:49.556Z,2.10
2019-02-04T22:26:18.781Z,1.70
2019-02-04T22:28:48.391Z,2.10
2019-02-04T22:31:17.952Z,1.83
2019-02-04T22:33:47.151Z,1.70
2019-02-04T22:36:16.343Z,2.00
2019-02-04T22:38:45.451Z,2.00
2019-02-04T22:41:14.572Z,2.00
2019-02-04T22:43:43.687Z,2.10
2019-02-04T22:46:12.958Z,2.20
2019-02-04T22:48:42.083Z,2.10
2019-02-04T22:51:11.200Z,2.07
2019-02-04T22:53:40.640Z,1.90
2019-02-04T22:56:09.864Z,1.97
2019-02-04T22:58:39.163Z,2.03
2019-02-04T23:01:34.207Z,1.80
2019-02-04T23:04:03.414Z,2.10
2019-02-04T23:06:32.539Z,1.80
2019-02-04T23:09:02.040Z,1.80
2019-02-04T23:11:31.249Z,2.07
2019-02-04T23:14:00.372Z,2.30
2019-02-04T23:16:29.588Z,2.10
2019-02-04T23:18:58.879Z,2.10
2019-02-04T23:21:28.088Z,1.90
2019-02-04T23:23:57.972Z,1.70
2019-02-04T23:26:27.162Z,1.80
2019-02-04T23:28:56.276Z,2.10
2019-02-04T23:31:25.564Z,2.13
2019-02-04T23:33:54.751Z,2.00
2019-02-04T23:36:23.876Z,2.07
2019-02-04T23:38:52.982Z,2.10
2019-02-04T23:41:22.123Z,2.00
2019-02-04T23:43:51.314Z,2.17
2019-02-04T23:46:20.619Z,2.17
2019-02-04T23:48:50.183Z,1.93
2019-02-04T23:51:19.411Z,1.67
2019-02-04T23:53:48.608Z,1.87
2019-02-04T23:56:17.752Z,2.03
2019-02-04T23:58:46.872Z,1.97
